Terminal Aerodrome Forecast
Issued by NWS North Platte, NE

Home | Current Version | Previous Version | Graphics & Text | Print | Product List | Glossary On
Versions: 1 2 3 4 5 6 7 8 9 10 11 12 13
000
FTUS43 KLBF 200520
TAFVTN
TAF
KVTN 200520Z 2006/2106 19015KT P6SM SKC WS020/21045KT
     FM201300 18013G19KT P6SM SCT200
     FM201800 19019G27KT P6SM SCT200
     FM210000 18012KT P6SM SCT200=

USA.gov is the U.S. government's official web portal to all federal, state and local government web resources and services.